Time;durP1;ratioP1;P1;durP2;ratioP2;P2;SDS_P1;SDS_P2;PMS_P1;PMS_P2;Temp;Humidity;BMP_temperature;BMP_pressure;BME280_temperature;BME280_humidity;BME280_pressure;Samples;Min_cycle;Max_cycle;Signal;HPM_P1;HPM_P2
2023/10/17 00:00:28;;;;;;;4.95;2.80;;;7.40;99.90;;;;;;5050734;28;20220;-60
2023/10/17 00:02:59;;;;;;;2.60;2.40;;;7.30;99.90;;;;;;5050758;28;20267;-61
2023/10/17 00:05:27;;;;;;;4.75;3.00;;;7.30;99.90;;;;;;5050117;28;20228;-61
2023/10/17 00:07:58;;;;;;;4.05;2.42;;;7.30;99.90;;;;;;5050497;28;20212;-60
2023/10/17 00:10:31;;;;;;;4.05;2.75;;;7.30;99.90;;;;;;5050459;28;20206;-60
2023/10/17 00:13:17;;;;;;;4.82;2.83;;;7.30;99.90;;;;;;5052013;28;20214;-60
2023/10/17 00:15:46;;;;;;;2.97;2.33;;;7.30;99.90;;;;;;5054240;28;20252;-60
2023/10/17 00:18:18;;;;;;;8.63;2.75;;;7.20;99.90;;;;;;5054499;28;20225;-60
2023/10/17 00:20:50;;;;;;;4.00;2.30;;;7.20;99.90;;;;;;5054186;28;20210;-61
2023/10/17 00:23:21;;;;;;;3.03;2.10;;;7.20;99.90;;;;;;5054294;28;20679;-60
2023/10/17 00:25:49;;;;;;;5.35;2.45;;;7.20;99.90;;;;;;5054125;28;20268;-60
2023/10/17 00:28:20;;;;;;;4.93;2.78;;;7.20;99.90;;;;;;5054516;28;20198;-60
2023/10/17 00:30:49;;;;;;;3.38;2.40;;;7.20;99.90;;;;;;5053947;28;20217;-62
2023/10/17 00:33:23;;;;;;;4.82;2.33;;;7.20;99.90;;;;;;5054378;28;20202;-61
2023/10/17 00:35:54;;;;;;;4.93;2.35;;;7.20;99.90;;;;;;5053707;28;20233;-61
2023/10/17 00:38:23;;;;;;;5.70;2.22;;;7.20;99.90;;;;;;5054189;28;20711;-58
2023/10/17 00:40:51;;;;;;;1.95;1.85;;;7.20;99.90;;;;;;5053867;28;20740;-59
2023/10/17 00:43:20;;;;;;;3.17;2.42;;;7.20;99.90;;;;;;5053873;28;20206;-60
2023/10/17 00:45:48;;;;;;;4.22;2.30;;;7.20;99.90;;;;;;5053666;28;20268;-60
2023/10/17 00:48:22;;;;;;;3.53;2.40;;;7.20;99.90;;;;;;5054178;28;20195;-60
2023/10/17 00:50:57;;;;;;;3.72;2.50;;;7.10;99.90;;;;;;5053647;28;20574;-59
2023/10/17 00:53:26;;;;;;;2.88;2.47;;;7.10;99.90;;;;;;5053780;28;20197;-60
2023/10/17 00:55:56;;;;;;;2.67;1.98;;;7.10;99.90;;;;;;5053623;28;20234;-59
2023/10/17 00:58:24;;;;;;;6.07;2.83;;;7.10;99.90;;;;;;5053986;28;20281;-61
2023/10/17 01:00:58;;;;;;;2.13;1.92;;;7.10;99.90;;;;;;5053500;28;20206;-60
2023/10/17 01:03:29;;;;;;;8.95;2.72;;;7.10;99.90;;;;;;5054042;28;20675;-61
2023/10/17 01:06:10;;;;;;;3.38;2.40;;;7.00;99.90;;;;;;5053578;28;20329;-58
2023/10/17 01:08:39;;;;;;;4.18;2.53;;;7.00;99.90;;;;;;5053741;28;20202;-59
2023/10/17 01:11:15;;;;;;;4.10;2.28;;;7.00;99.90;;;;;;5053470;28;20210;-58
2023/10/17 01:13:57;;;;;;;2.53;2.33;;;7.00;99.90;;;;;;5009700;28;20207;-60
2023/10/17 01:16:25;;;;;;;4.50;2.58;;;6.90;99.90;;;;;;5011079;28;20275;-58
2023/10/17 01:18:54;;;;;;;4.68;2.50;;;6.90;99.90;;;;;;5011365;28;20223;-58
2023/10/17 01:21:23;;;;;;;3.08;2.70;;;6.90;99.90;;;;;;5011068;28;20298;-59
2023/10/17 01:23:51;;;;;;;3.67;2.30;;;6.80;99.90;;;;;;5010306;28;20211;-58
2023/10/17 01:26:23;;;;;;;4.30;2.22;;;6.80;99.90;;;;;;5010904;28;20290;-59
2023/10/17 01:28:52;;;;;;;6.30;2.35;;;6.70;99.90;;;;;;5010636;28;20242;-59
2023/10/17 01:31:23;;;;;;;2.88;2.45;;;6.70;99.90;;;;;;5010915;28;20293;-59
2023/10/17 01:33:54;;;;;;;3.67;2.17;;;6.60;99.90;;;;;;5010771;28;20695;-59
2023/10/17 01:36:22;;;;;;;4.05;2.58;;;6.60;99.90;;;;;;5010919;28;20632;-59
2023/10/17 01:38:50;;;;;;;2.67;2.20;;;6.60;99.90;;;;;;5010587;28;20781;-59
2023/10/17 01:41:19;;;;;;;3.90;2.40;;;6.60;99.90;;;;;;5010681;28;20235;-58
2023/10/17 01:43:48;;;;;;;3.13;2.25;;;6.50;99.90;;;;;;5012202;28;20313;-59
2023/10/17 01:46:21;;;;;;;6.72;2.58;;;6.50;99.90;;;;;;5052790;28;20267;-60
2023/10/17 01:48:49;;;;;;;5.35;2.80;;;6.50;99.90;;;;;;5052833;28;20198;-59
2023/10/17 01:51:17;;;;;;;4.45;2.30;;;6.50;99.90;;;;;;5052491;28;20198;-59
2023/10/17 01:53:48;;;;;;;2.75;2.35;;;6.50;99.90;;;;;;5052505;28;20225;-60
2023/10/17 01:56:16;;;;;;;4.25;2.60;;;6.50;99.90;;;;;;5052691;28;20206;-58
2023/10/17 01:58:48;;;;;;;3.53;2.70;;;6.50;99.90;;;;;;5052690;28;20252;-57
2023/10/17 02:01:24;;;;;;;3.45;2.58;;;6.40;99.90;;;;;;5052319;28;20202;-57
2023/10/17 02:03:53;;;;;;;6.35;2.42;;;6.40;99.90;;;;;;5052311;28;20640;-61
2023/10/17 02:06:22;;;;;;;6.22;2.75;;;6.40;99.90;;;;;;5052465;28;20202;-58
2023/10/17 02:08:50;;;;;;;3.00;2.50;;;6.30;99.90;;;;;;5052488;28;20216;-59
2023/10/17 02:11:24;;;;;;;5.90;2.70;;;6.30;99.90;;;;;;5052153;28;20671;-58
2023/10/17 02:13:53;;;;;;;6.80;2.78;;;6.30;99.90;;;;;;5052113;28;20202;-57
2023/10/17 02:16:23;;;;;;;4.35;2.55;;;6.30;99.90;;;;;;5052230;28;20224;-60
2023/10/17 02:18:51;;;;;;;3.22;2.75;;;6.20;99.90;;;;;;5052351;28;20205;-62
2023/10/17 02:21:20;;;;;;;4.45;2.65;;;6.20;99.90;;;;;;5052005;28;20202;-62
2023/10/17 02:23:51;;;;;;;7.32;2.95;;;6.20;99.90;;;;;;5051918;28;20289;-61
2023/10/17 02:26:22;;;;;;;4.82;3.13;;;6.20;99.90;;;;;;5051876;28;20202;-61
2023/10/17 02:28:50;;;;;;;5.32;2.40;;;6.20;99.90;;;;;;5051975;28;20275;-61
2023/10/17 02:31:22;;;;;;;3.80;2.78;;;6.20;99.90;;;;;;5051869;28;20289;-60
2023/10/17 02:33:53;;;;;;;4.30;2.90;;;6.20;99.90;;;;;;5051910;28;20292;-61
2023/10/17 02:36:21;;;;;;;3.97;3.10;;;6.20;99.90;;;;;;5050909;28;20297;-61
2023/10/17 02:38:49;;;;;;;3.33;2.45;;;6.10;99.90;;;;;;5051932;28;20210;-61
2023/10/17 02:41:19;;;;;;;6.10;3.28;;;6.10;99.90;;;;;;5051570;28;20252;-62
2023/10/17 02:43:47;;;;;;;3.53;2.88;;;6.10;99.90;;;;;;5051817;28;20213;-61
2023/10/17 02:46:15;;;;;;;5.32;3.03;;;6.10;99.90;;;;;;5051760;28;20236;-59
2023/10/17 02:48:45;;;;;;;5.50;3.17;;;6.10;99.90;;;;;;5051500;28;20267;-61
2023/10/17 02:51:31;;;;;;;5.88;2.95;;;6.10;99.90;;;;;;5051220;28;20278;-61
2023/10/17 02:54:05;;;;;;;3.65;3.30;;;6.10;99.90;;;;;;5051449;28;20210;-61
2023/10/17 02:56:37;;;;;;;4.53;3.05;;;6.10;99.90;;;;;;5051182;28;20233;-60
2023/10/17 02:59:07;;;;;;;7.43;2.90;;;6.10;99.90;;;;;;5051204;28;20224;-58
2023/10/17 03:01:36;;;;;;;5.60;3.40;;;6.10;99.90;;;;;;5051125;28;20272;-61
2023/10/17 03:04:11;;;;;;;5.03;2.80;;;6.10;99.90;;;;;;5050791;28;20197;-61
2023/10/17 03:06:41;;;;;;;5.55;3.03;;;6.00;99.90;;;;;;5050944;28;20290;-60
2023/10/17 03:09:33;;;;;;;4.63;3.10;;;6.00;99.90;;;;;;5043362;28;20293;-60
2023/10/17 03:12:18;;;;;;;2.97;2.70;;;6.10;99.90;;;;;;5050985;28;20271;-60
2023/10/17 03:17:32;;;;;;;5.60;2.40;;;6.10;99.90;;;;;;5051046;28;20216;-58
2023/10/17 03:19:59;;;;;;;3.78;3.35;;;6.00;99.90;;;;;;5050704;28;20612;-58
2023/10/17 03:22:28;;;;;;;7.30;3.50;;;6.00;99.90;;;;;;5050914;28;20206;-59
2023/10/17 03:25:18;;;;;;;2.97;2.70;;;6.00;99.90;;;;;;5050251;28;20222;-60
2023/10/17 03:27:49;;;;;;;4.13;3.00;;;6.10;99.90;;;;;;5051047;28;20267;-59
2023/10/17 03:30:19;;;;;;;4.05;2.95;;;6.10;99.90;;;;;;5050500;28;20675;-60
2023/10/17 03:33:02;;;;;;;7.80;3.00;;;6.10;99.90;;;;;;5050800;28;20264;-60
2023/10/17 03:35:33;;;;;;;3.00;2.65;;;6.10;99.90;;;;;;5045102;28;20260;-59
2023/10/17 03:38:08;;;;;;;3.88;2.60;;;6.10;99.90;;;;;;5051097;28;20286;-59
2023/10/17 03:40:40;;;;;;;5.90;2.97;;;6.10;99.90;;;;;;5050693;28;20222;-62
2023/10/17 03:43:12;;;;;;;5.43;2.60;;;6.10;99.90;;;;;;5050784;28;20210;-61
2023/10/17 03:45:52;;;;;;;4.18;3.03;;;6.10;99.90;;;;;;5050738;28;20236;-62
2023/10/17 03:48:21;;;;;;;3.53;3.10;;;6.10;99.90;;;;;;5048015;28;20288;-61
2023/10/17 03:53:36;;;;;;;3.85;2.75;;;6.10;99.90;;;;;;5053848;28;20667;-61
2023/10/17 03:56:09;;;;;;;3.38;2.83;;;6.10;99.90;;;;;;5054616;28;20225;-61
2023/10/17 03:58:49;;;;;;;4.60;2.88;;;6.10;99.90;;;;;;5053324;28;20651;-61
2023/10/17 04:01:22;;;;;;;3.97;3.20;;;6.10;99.90;;;;;;5047440;28;20229;-61
2023/10/17 04:03:53;;;;;;;4.30;2.83;;;6.10;99.90;;;;;;5054507;28;20210;-59
2023/10/17 04:06:32;;;;;;;2.80;2.58;;;6.10;99.90;;;;;;5054629;28;20201;-58
2023/10/17 04:11:58;;;;;;;5.30;3.20;;;6.10;99.90;;;;;;5088630;28;21070;-59
2023/10/17 04:14:29;;;;;;;3.20;2.53;;;6.10;99.90;;;;;;5088421;28;20241;-60
2023/10/17 04:16:57;;;;;;;3.28;2.85;;;6.20;99.90;;;;;;5088426;28;20205;-60
2023/10/17 04:19:26;;;;;;;3.75;2.63;;;6.20;99.90;;;;;;5088528;28;20292;-59
2023/10/17 04:22:01;;;;;;;3.70;2.50;;;6.20;99.90;;;;;;5088579;28;20212;-60
2023/10/17 04:24:48;;;;;;;4.22;2.47;;;6.20;99.90;;;;;;5088496;28;20228;-59
2023/10/17 04:27:22;;;;;;;4.93;2.42;;;6.20;99.90;;;;;;5080894;28;20309;-60
2023/10/17 04:29:56;;;;;;;5.10;2.88;;;6.20;99.90;;;;;;5088084;28;20201;-61
2023/10/17 04:32:27;;;;;;;3.15;2.60;;;6.20;99.90;;;;;;5086967;28;20227;-59
2023/10/17 04:34:56;;;;;;;6.13;2.55;;;6.20;99.90;;;;;;5086335;28;20228;-59
2023/10/17 04:37:32;;;;;;;3.13;2.75;;;6.20;99.90;;;;;;5088106;28;20228;-58
2023/10/17 04:43:31;;;;;;;3.80;2.60;;;6.20;99.90;;;;;;5087906;28;20208;-60
2023/10/17 04:45:45;;;;;;;2.40;2.20;;;6.10;99.90;;;;;;5083927;28;20286;-61
2023/10/17 04:48:16;;;;;;;5.20;2.50;;;6.10;99.90;;;;;;5087946;28;20591;-60
2023/10/17 04:50:55;;;;;;;4.20;2.33;;;6.10;99.90;;;;;;5087702;28;20229;-61
2023/10/17 04:53:28;;;;;;;2.63;2.42;;;6.10;99.90;;;;;;5087772;28;20250;-61
2023/10/17 04:56:09;;;;;;;2.05;1.95;;;6.10;99.90;;;;;;5087701;28;20225;-61
2023/10/17 04:58:42;;;;;;;4.13;2.63;;;6.10;99.90;;;;;;5087910;28;20811;-61
2023/10/17 05:01:34;;;;;;;4.22;2.67;;;6.10;99.90;;;;;;5087787;28;20573;-61
2023/10/17 05:04:13;;;;;;;3.08;2.88;;;6.10;99.90;;;;;;5087335;28;20203;-61
2023/10/17 06:19:02;;;;;;;6.07;2.13;;;6.20;99.90;;;;;;5052582;28;20222;-73
2023/10/17 06:21:36;;;;;;;3.20;1.92;;;6.20;99.90;;;;;;5060115;28;20292;-73
2023/10/17 06:24:18;;;;;;;6.65;2.10;;;6.20;99.90;;;;;;5052305;28;20228;-73
2023/10/17 06:26:58;;;;;;;3.55;2.17;;;6.20;99.90;;;;;;5052767;28;20217;-73
2023/10/17 06:35:20;;;;;;;2.13;1.83;;;6.30;99.90;;;;;;5042639;28;20210;-73
2023/10/17 06:37:51;;;;;;;2.40;1.90;;;6.30;99.90;;;;;;5052614;28;20645;-73
2023/10/17 06:40:18;;;;;;;8.55;1.95;;;6.40;99.90;;;;;;5052344;28;20770;-73
2023/10/17 06:42:50;;;;;;;6.72;2.22;;;6.40;99.90;;;;;;5067684;28;20223;-73
2023/10/17 06:45:18;;;;;;;2.42;2.03;;;6.40;99.90;;;;;;5060806;28;20224;-73
2023/10/17 06:47:49;;;;;;;3.72;2.00;;;6.40;99.90;;;;;;5052306;28;20297;-73
2023/10/17 06:51:21;;;;;;;6.65;2.10;;;6.40;99.90;;;;;;5052760;28;20224;-73
2023/10/17 06:53:11;;;;;;;4.63;1.92;;;6.40;99.90;;;;;;5052534;28;20202;-73
2023/10/17 06:55:43;;;;;;;4.95;2.40;;;6.50;99.90;;;;;;5061175;28;20212;-73
2023/10/17 06:58:11;;;;;;;5.75;2.58;;;6.50;99.90;;;;;;5061112;28;20659;-73
2023/10/17 07:00:51;;;;;;;2.58;2.20;;;6.50;99.90;;;;;;5060045;28;20222;-73
2023/10/17 07:03:24;;;;;;;3.60;2.38;;;6.60;99.90;;;;;;5055426;28;20205;-73
2023/10/17 07:05:55;;;;;;;2.47;1.80;;;6.60;99.90;;;;;;5063249;28;20594;-73
2023/10/17 07:08:30;;;;;;;4.93;2.45;;;6.60;99.90;;;;;;5059784;28;20668;-73
2023/10/17 07:11:02;;;;;;;6.47;2.30;;;6.60;99.90;;;;;;5051183;28;20251;-73
2023/10/17 07:13:50;;;;;;;8.13;2.47;;;6.70;99.90;;;;;;5059682;28;20260;-73
2023/10/17 07:16:27;;;;;;;1.90;1.80;;;6.70;99.90;;;;;;5051225;28;20201;-73
2023/10/17 07:18:57;;;;;;;4.32;2.85;;;6.80;99.90;;;;;;5051716;28;20201;-73
2023/10/17 07:21:24;;;;;;;3.35;2.03;;;6.80;99.90;;;;;;5052001;28;20214;-73
2023/10/17 07:24:01;;;;;;;11.13;2.70;;;6.80;99.90;;;;;;5060016;28;20206;-73
2023/10/17 07:26:40;;;;;;;3.95;2.45;;;6.80;99.90;;;;;;5059497;28;20202;-73
2023/10/17 07:29:08;;;;;;;4.07;2.42;;;6.90;99.90;;;;;;5059915;28;20233;-73
2023/10/17 07:31:36;;;;;;;2.88;2.55;;;6.90;99.90;;;;;;5056335;28;20306;-73
2023/10/17 07:34:16;;;;;;;9.52;2.90;;;6.90;99.90;;;;;;5064747;28;20209;-73
2023/10/17 07:36:47;;;;;;;2.67;2.20;;;7.00;99.90;;;;;;5056834;28;20222;-73
2023/10/17 07:39:22;;;;;;;3.78;2.25;;;7.00;99.90;;;;;;5054859;28;20259;-73
2023/10/17 07:41:54;;;;;;;7.85;3.05;;;7.00;99.90;;;;;;5058706;28;20208;-73
2023/10/17 07:44:22;;;;;;;3.42;2.70;;;7.00;99.90;;;;;;5059047;28;20215;-73
2023/10/17 07:46:51;;;;;;;9.90;2.78;;;7.10;99.90;;;;;;5069365;28;20205;-73
2023/10/17 07:49:26;;;;;;;2.90;2.40;;;7.10;99.90;;;;;;5051286;28;20667;-73
2023/10/17 07:51:55;;;;;;;5.15;2.47;;;7.20;99.90;;;;;;5049733;28;20226;-73
2023/10/17 07:54:28;;;;;;;4.28;2.13;;;7.30;99.90;;;;;;5069210;28;20659;-73
2023/10/17 07:56:58;;;;;;;4.68;2.20;;;7.40;99.90;;;;;;5061436;28;20386;-73
2023/10/17 07:59:31;;;;;;;2.72;2.10;;;7.40;99.90;;;;;;5069705;28;20225;-73
2023/10/17 08:02:00;;;;;;;3.47;2.40;;;7.40;99.90;;;;;;5069298;28;20686;-73
2023/10/17 08:04:31;;;;;;;3.03;2.47;;;7.50;99.90;;;;;;5069771;28;20219;-73
2023/10/17 08:06:59;;;;;;;5.07;2.33;;;7.60;99.90;;;;;;5062614;28;20212;-73
2023/10/17 08:09:36;;;;;;;5.10;2.00;;;7.70;99.90;;;;;;5063360;28;20308;-73
2023/10/17 08:12:08;;;;;;;3.83;2.10;;;7.80;99.90;;;;;;5061540;28;20229;-73
2023/10/17 08:14:41;;;;;;;4.38;2.30;;;7.80;99.90;;;;;;5059252;28;20647;-73
2023/10/17 08:17:09;;;;;;;4.00;2.30;;;7.90;99.90;;;;;;5051019;28;20777;-73
2023/10/17 08:20:00;;;;;;;5.25;1.95;;;8.00;99.90;;;;;;5059376;28;20228;-73
2023/10/17 08:22:25;;;;;;;2.20;1.90;;;8.00;99.90;;;;;;5062538;28;20233;-73
2023/10/17 08:24:57;;;;;;;4.05;2.00;;;8.10;99.90;;;;;;5062390;28;20627;-73
2023/10/17 08:27:45;;;;;;;3.35;2.03;;;8.20;99.90;;;;;;5070070;28;20204;-73
2023/10/17 08:30:23;;;;;;;3.33;2.00;;;8.30;99.90;;;;;;5070209;28;20225;-73
2023/10/17 08:33:11;;;;;;;4.72;1.98;;;8.30;99.90;;;;;;5062039;28;20221;-73
2023/10/17 08:35:40;;;;;;;6.88;1.95;;;8.30;99.90;;;;;;5070736;28;20206;-73
2023/10/17 08:38:07;;;;;;;4.53;2.17;;;8.30;99.90;;;;;;5053310;28;20206;-73
2023/10/17 08:40:41;;;;;;;7.05;1.90;;;8.30;99.90;;;;;;5050797;28;20230;-73
2023/10/17 08:43:14;;;;;;;4.82;1.88;;;8.40;99.90;;;;;;5058715;28;20615;-72
2023/10/17 08:45:44;;;;;;;4.32;2.03;;;8.40;99.90;;;;;;5050624;28;20293;-72
2023/10/17 08:48:12;;;;;;;3.08;1.90;;;8.50;99.90;;;;;;5059094;28;20477;-73
2023/10/17 08:50:40;;;;;;;5.40;1.85;;;8.60;99.90;;;;;;5059234;28;20221;-73
2023/10/17 08:53:13;;;;;;;2.33;1.70;;;8.70;99.90;;;;;;5058946;28;20229;-73
2023/10/17 08:55:42;;;;;;;3.65;1.98;;;8.70;99.90;;;;;;5050927;28;20209;-73
2023/10/17 08:58:10;;;;;;;2.03;1.60;;;8.80;99.90;;;;;;5053219;28;20276;-73
2023/10/17 09:00:55;;;;;;;2.53;1.83;;;8.80;99.90;;;;;;5067458;22;20265;-58
2023/10/17 09:03:31;;;;;;;3.25;1.90;;;8.80;99.90;;;;;;5054199;28;20650;-61
2023/10/17 09:08:46;;;;;;;2.28;2.08;;;8.90;99.90;;;;;;5073745;28;20658;-59
2023/10/17 09:11:25;;;;;;;1.58;1.42;;;8.80;99.90;;;;;;5074111;28;20201;-60
2023/10/17 09:14:14;;;;;;;1.50;1.40;;;8.80;99.90;;;;;;5074054;28;20315;-60
2023/10/17 09:16:42;;;;;;;3.70;2.17;;;8.80;99.90;;;;;;5053648;28;20699;-60
2023/10/17 09:19:11;;;;;;;3.55;1.67;;;8.80;99.90;;;;;;5053891;28;20205;-61
2023/10/17 09:21:43;;;;;;;5.20;1.52;;;8.80;99.90;;;;;;5053824;28;20633;-59
2023/10/17 09:24:32;;;;;;;2.00;1.77;;;8.90;99.90;;;;;;5054024;28;20259;-60
2023/10/17 09:27:06;;;;;;;5.55;1.70;;;8.90;99.90;;;;;;5053130;28;20225;-60
2023/10/17 09:29:42;;;;;;;1.63;1.45;;;9.00;99.90;;;;;;5053755;28;20205;-60
2023/10/17 09:32:10;;;;;;;2.30;1.55;;;9.00;99.90;;;;;;5053528;28;20221;-60
2023/10/17 09:34:40;;;;;;;5.65;1.75;;;9.00;99.90;;;;;;5053449;28;20213;-60
2023/10/17 09:37:12;;;;;;;1.60;1.48;;;9.10;99.90;;;;;;5053349;28;20749;-60
2023/10/17 09:39:46;;;;;;;2.80;1.90;;;9.10;99.90;;;;;;5053690;28;20225;-60
2023/10/17 09:42:16;;;;;;;1.88;1.75;;;9.10;99.90;;;;;;5053365;28;20212;-60
2023/10/17 09:44:43;;;;;;;6.60;2.28;;;9.10;99.90;;;;;;5053803;28;20593;-60
2023/10/17 09:47:14;;;;;;;1.70;1.60;;;9.20;99.90;;;;;;5053349;28;20657;-60
2023/10/17 09:49:45;;;;;;;4.75;2.15;;;9.20;99.90;;;;;;5053529;28;20217;-61
2023/10/17 09:52:14;;;;;;;2.53;1.88;;;9.20;99.90;;;;;;5053096;28;20255;-61
2023/10/17 09:54:42;;;;;;;4.35;2.03;;;9.30;99.90;;;;;;5053446;28;20275;-59
2023/10/17 09:57:13;;;;;;;6.45;1.40;;;9.30;99.90;;;;;;5053013;28;20230;-60
2023/10/17 09:59:44;;;;;;;2.95;1.77;;;9.40;99.90;;;;;;5053042;28;20726;-60
2023/10/17 10:02:12;;;;;;;3.95;2.15;;;9.40;99.90;;;;;;5053208;28;20238;-60
2023/10/17 10:04:40;;;;;;;4.82;1.90;;;9.40;99.90;;;;;;5053263;28;20202;-61
2023/10/17 10:07:25;;;;;;;7.47;1.98;;;9.40;99.90;;;;;;5052746;28;20234;-61
2023/10/17 10:09:53;;;;;;;3.97;1.90;;;9.40;99.90;;;;;;5051468;28;20206;-60
2023/10/17 10:12:21;;;;;;;4.10;1.85;;;9.40;99.90;;;;;;5052867;28;20214;-60
2023/10/17 10:14:50;;;;;;;2.88;1.73;;;9.40;99.90;;;;;;5058276;28;20205;-60
2023/10/17 10:17:18;;;;;;;2.97;1.90;;;9.40;99.90;;;;;;5058628;28;20229;-60
2023/10/17 10:20:08;;;;;;;5.10;1.88;;;9.50;99.90;;;;;;5068244;28;20241;-59
2023/10/17 10:22:52;;;;;;;3.15;1.80;;;9.50;99.90;;;;;;5056981;28;20638;-60
2023/10/17 10:25:22;;;;;;;5.13;2.13;;;9.60;99.90;;;;;;5057822;28;20209;-60
2023/10/17 10:28:16;;;;;;;5.07;2.20;;;9.70;99.90;;;;;;5058924;28;20197;-61
2023/10/17 10:30:48;;;;;;;5.28;2.03;;;9.70;99.90;;;;;;5060723;28;20206;-60
2023/10/17 10:33:16;;;;;;;3.10;1.55;;;9.80;99.90;;;;;;5060560;28;20702;-59
2023/10/17 10:35:46;;;;;;;3.53;1.80;;;9.80;99.90;;;;;;5058444;28;20336;-56
2023/10/17 10:38:13;;;;;;;5.80;1.90;;;9.80;99.90;;;;;;5052491;28;20238;-60
2023/10/17 10:40:41;;;;;;;5.50;2.20;;;9.80;99.90;;;;;;5052730;28;20236;-60
2023/10/17 10:43:19;;;;;;;4.05;1.90;;;9.80;99.90;;;;;;5052066;28;20307;-59
2023/10/17 10:45:50;;;;;;;2.33;1.88;;;9.80;99.90;;;;;;5052410;28;20221;-60
2023/10/17 10:48:21;;;;;;;2.33;1.88;;;9.90;99.90;;;;;;5052304;28;20268;-59
2023/10/17 10:50:52;;;;;;;3.40;1.65;;;10.00;99.90;;;;;;5052364;28;20233;-60
2023/10/17 10:53:21;;;;;;;2.03;1.60;;;10.00;99.90;;;;;;5051664;28;20343;-60
2023/10/17 10:55:59;;;;;;;1.77;1.60;;;10.10;99.90;;;;;;5052157;28;20320;-59
2023/10/17 10:58:28;;;;;;;4.28;1.98;;;10.10;99.90;;;;;;5052350;28;20292;-60
2023/10/17 11:00:59;;;;;;;4.72;2.03;;;10.10;99.90;;;;;;5051980;28;20304;-60
2023/10/17 11:03:27;;;;;;;4.45;1.90;;;10.20;99.90;;;;;;5051789;28;20904;-60
2023/10/17 11:05:58;;;;;;;1.98;1.83;;;10.20;99.90;;;;;;5051966;28;20234;-60
2023/10/17 11:08:33;;;;;;;3.08;1.42;;;10.20;99.90;;;;;;5051949;28;20293;-59
2023/10/17 11:11:01;;;;;;;2.90;1.73;;;10.20;99.90;;;;;;5051692;28;20301;-59
2023/10/17 11:13:34;;;;;;;1.83;1.70;;;10.30;99.90;;;;;;5051615;28;20230;-60
2023/10/17 11:16:05;;;;;;;4.85;1.75;;;10.30;99.90;;;;;;5051863;28;20569;-60
2023/10/17 11:18:34;;;;;;;2.13;1.45;;;10.30;99.90;;;;;;5051755;28;20202;-59
2023/10/17 11:21:04;;;;;;;2.38;1.73;;;10.40;99.90;;;;;;5051117;28;20209;-59
2023/10/17 11:23:33;;;;;;;3.03;1.75;;;10.40;99.90;;;;;;5051622;28;20202;-60
2023/10/17 11:26:01;;;;;;;3.90;1.70;;;10.40;99.90;;;;;;5051372;28;20321;-61
2023/10/17 11:28:47;;;;;;;6.10;1.90;;;10.40;99.90;;;;;;5065416;28;20200;-60
2023/10/17 11:31:21;;;;;;;1.60;1.50;;;10.40;99.90;;;;;;5071463;28;20296;-60
2023/10/17 11:33:54;;;;;;;2.55;1.70;;;10.50;99.90;;;;;;5071373;28;20224;-61
2023/10/17 11:36:22;;;;;;;1.98;1.67;;;10.50;99.90;;;;;;5065624;22;20257;-60
2023/10/17 11:39:03;;;;;;;2.58;1.75;;;10.50;99.90;;;;;;5010127;28;20211;-59
2023/10/17 11:41:39;;;;;;;2.90;2.00;;;10.50;99.90;;;;;;5011540;28;20300;-60
2023/10/17 11:44:09;;;;;;;4.47;1.35;;;10.50;99.90;;;;;;5010868;28;20210;-61
2023/10/17 11:46:38;;;;;;;1.48;1.48;;;10.60;99.90;;;;;;5009438;28;20223;-61
2023/10/17 11:49:21;;;;;;;4.00;1.85;;;10.60;99.90;;;;;;5004048;28;20212;-60
2023/10/17 11:51:51;;;;;;;2.75;1.70;;;10.80;99.90;;;;;;5005303;28;20207;-61
2023/10/17 11:54:22;;;;;;;5.00;1.48;;;11.00;99.90;;;;;;5010299;28;20277;-61
2023/10/17 11:57:01;;;;;;;1.88;1.73;;;11.20;99.90;;;;;;5011351;28;20674;-60
2023/10/17 11:59:28;;;;;;;4.13;1.75;;;11.70;99.90;;;;;;5010416;28;20306;-60
2023/10/17 12:02:02;;;;;;;1.52;1.42;;;12.00;99.90;;;;;;5011591;28;20297;-59
2023/10/17 12:04:30;;;;;;;1.45;1.30;;;12.40;99.90;;;;;;5011290;28;20695;-61
2023/10/17 12:07:01;;;;;;;1.83;1.52;;;12.70;99.90;;;;;;5011338;28;20233;-60
2023/10/17 12:09:31;;;;;;;3.10;1.35;;;12.70;99.90;;;;;;5001573;28;20298;-60
2023/10/17 12:12:02;;;;;;;3.10;1.50;;;12.60;99.90;;;;;;5010666;28;20562;-62
2023/10/17 12:14:30;;;;;;;2.50;1.40;;;12.50;99.90;;;;;;5010905;28;20740;-60
2023/10/17 12:17:00;;;;;;;2.67;1.60;;;12.90;99.90;;;;;;5010736;28;20259;-62
2023/10/17 12:19:28;;;;;;;3.33;1.52;;;13.30;99.90;;;;;;5010212;28;20609;-62
2023/10/17 12:22:00;;;;;;;3.13;1.98;;;13.70;99.90;;;;;;5010904;28;20203;-61
2023/10/17 12:24:29;;;;;;;2.33;1.70;;;14.10;99.90;;;;;;5010999;28;20207;-61
2023/10/17 12:26:57;;;;;;;2.25;1.58;;;14.50;99.90;;;;;;5011138;28;20270;-61
2023/10/17 12:29:28;;;;;;;4.43;1.65;;;14.70;99.90;;;;;;5011295;28;20214;-61
2023/10/17 12:31:57;;;;;;;3.05;1.45;;;14.90;99.90;;;;;;5012057;28;20203;-62
2023/10/17 12:34:27;;;;;;;1.63;1.52;;;15.10;99.90;;;;;;5015530;28;20586;-60
2023/10/17 12:36:55;;;;;;;1.88;1.25;;;15.30;99.90;;;;;;5014482;28;20231;-62
2023/10/17 12:39:31;;;;;;;2.25;1.60;;;15.30;99.90;;;;;;5014951;28;20210;-59
2023/10/17 12:41:59;;;;;;;1.70;1.60;;;15.30;99.90;;;;;;5014676;28;20215;-62
2023/10/17 12:44:27;;;;;;;2.35;1.45;;;15.10;99.90;;;;;;5014864;28;20231;-61
2023/10/17 12:46:55;;;;;;;2.10;1.30;;;15.10;99.90;;;;;;5014901;28;20259;-60
2023/10/17 12:49:23;;;;;;;1.42;1.30;;;15.30;99.90;;;;;;5014811;28;20359;-61
2023/10/17 12:51:53;;;;;;;2.20;1.38;;;15.50;99.90;;;;;;5014759;28;20218;-61
2023/10/17 12:54:21;;;;;;;1.10;1.10;;;15.70;99.90;;;;;;5014631;28;20227;-62
2023/10/17 12:56:49;;;;;;;1.70;1.20;;;15.90;99.90;;;;;;5014764;28;20231;-62
2023/10/17 12:59:17;;;;;;;5.53;1.42;;;15.80;99.90;;;;;;5014853;28;20211;-62
2023/10/17 13:01:45;;;;;;;3.60;1.20;;;16.00;99.90;;;;;;5014652;28;20294;-61
2023/10/17 13:04:13;;;;;;;1.45;1.13;;;16.30;99.90;;;;;;5014308;28;20233;-62
2023/10/17 13:06:41;;;;;;;2.90;1.25;;;16.50;99.90;;;;;;5014299;28;20223;-62
2023/10/17 13:09:11;;;;;;;2.60;1.23;;;16.60;99.90;;;;;;5014351;28;20214;-60
2023/10/17 13:11:39;;;;;;;2.72;1.45;;;16.80;99.90;;;;;;5012191;28;20679;-62
2023/10/17 13:14:07;;;;;;;1.35;1.10;;;16.90;99.90;;;;;;5014328;28;20313;-61
2023/10/17 13:16:35;;;;;;;2.35;1.27;;;17.00;99.90;;;;;;5013972;28;20277;-61
2023/10/17 13:19:07;;;;;;;1.98;1.25;;;17.30;99.90;;;;;;5014353;28;20676;-62
2023/10/17 13:21:37;;;;;;;2.35;1.20;;;17.40;99.90;;;;;;5013937;28;20640;-62
2023/10/17 13:24:07;;;;;;;3.08;1.30;;;17.50;99.90;;;;;;5014330;28;20294;-61
2023/10/17 13:26:37;;;;;;;2.45;1.30;;;17.70;99.90;;;;;;5013749;28;20614;-61
2023/10/17 13:29:05;;;;;;;3.65;1.38;;;17.80;99.90;;;;;;5014086;28;20207;-61
2023/10/17 13:31:34;;;;;;;2.88;1.33;;;17.60;99.90;;;;;;5014247;28;20260;-62
2023/10/17 13:34:02;;;;;;;2.95;1.33;;;17.60;99.90;;;;;;5012818;28;20672;-62
2023/10/17 13:36:30;;;;;;;2.03;1.40;;;17.50;99.90;;;;;;5013478;28;20239;-62
2023/10/17 13:38:57;;;;;;;1.50;1.40;;;17.80;99.90;;;;;;5014199;28;20207;-63
2023/10/17 13:41:25;;;;;;;2.38;1.23;;;17.80;99.90;;;;;;5013566;28;20639;-62
2023/10/17 13:43:55;;;;;;;4.55;1.40;;;17.90;99.90;;;;;;5013773;28;20265;-62
2023/10/17 13:46:22;;;;;;;1.42;1.33;;;18.20;99.90;;;;;;5013475;28;20306;-62
2023/10/17 13:48:50;;;;;;;1.98;1.20;;;18.50;99.90;;;;;;5014190;28;20214;-62
2023/10/17 13:51:19;;;;;;;3.50;1.55;;;18.70;99.90;;;;;;5013534;28;20203;-62
2023/10/17 13:53:48;;;;;;;2.95;1.67;;;18.90;99.90;;;;;;5013657;28;20298;-61
2023/10/17 13:56:18;;;;;;;1.90;1.27;;;18.70;99.90;;;;;;5013237;28;20231;-62
2023/10/17 13:58:46;;;;;;;2.83;1.27;;;18.60;99.90;;;;;;5013646;28;20588;-62
2023/10/17 14:01:31;;;;;;;1.40;1.10;;;18.30;99.90;;;;;;5013573;28;20323;-62
2023/10/17 14:04:00;;;;;;;1.42;1.23;;;17.70;99.90;;;;;;5013573;28;20404;-62
2023/10/17 14:06:33;;;;;;;1.48;1.23;;;17.50;99.90;;;;;;5013002;28;20231;-62
2023/10/17 14:09:03;;;;;;;1.13;1.02;;;16.60;99.90;;;;;;4999724;28;20239;-61
2023/10/17 14:11:31;;;;;;;2.17;1.02;;;16.30;99.90;;;;;;5011684;28;20213;-62
2023/10/17 14:13:59;;;;;;;1.95;1.08;;;16.20;99.90;;;;;;5013361;28;20265;-62
2023/10/17 14:16:28;;;;;;;1.48;1.00;;;16.30;99.90;;;;;;5012967;28;20239;-60
2023/10/17 14:19:04;;;;;;;4.03;1.58;;;16.40;99.90;;;;;;5013515;28;20208;-62
2023/10/17 14:21:36;;;;;;;1.40;1.30;;;16.70;99.90;;;;;;5013249;28;20210;-62
2023/10/17 14:24:10;;;;;;;1.80;1.55;;;16.90;99.90;;;;;;5013364;28;20214;-61
2023/10/17 14:26:39;;;;;;;2.50;0.98;;;16.50;99.90;;;;;;5012955;28;20639;-62
2023/10/17 14:29:07;;;;;;;1.20;1.10;;;16.50;99.90;;;;;;5013217;28;20203;-61
2023/10/17 14:31:37;;;;;;;3.63;1.20;;;16.60;99.90;;;;;;4997410;28;20208;-61
2023/10/17 14:34:09;;;;;;;2.60;1.05;;;16.80;99.90;;;;;;5012958;28;20211;-61
2023/10/17 14:36:37;;;;;;;2.05;1.00;;;16.80;99.90;;;;;;5004290;28;20758;-63
2023/10/17 14:39:09;;;;;;;1.20;1.10;;;16.80;99.90;;;;;;5013113;28;20226;-61
2023/10/17 14:41:39;;;;;;;2.00;1.20;;;16.70;99.90;;;;;;5012654;28;20616;-62
2023/10/17 14:44:08;;;;;;;1.45;1.35;;;16.50;99.90;;;;;;5013062;28;20231;-60
2023/10/17 14:46:37;;;;;;;1.35;0.93;;;16.30;99.90;;;;;;5010092;28;20602;-61
2023/10/17 14:49:05;;;;;;;0.93;0.90;;;16.00;99.90;;;;;;5007457;28;20218;-62